Augher, United Kingdom
Current Conditions -  °F | °C
As of 11:20 AM on Saturday 20 Dec 2014 (Local Time) from EGAA Reporting Station
Few Clouds Few Clouds  
Wind Chill: 35°   Ceiling: Unl
Heat Index: 43°   Visibility: 6mi
Dew Point: 39°   Wind: 18mph
Humidity: 87%   Direction: 250°WSW
Pressure: 30.24"   Gusts: NA
Location:  54.43°N, 7.13°W
Report Text: EGAA 201120Z 25016KT 9999 FEW047 06/04 Q1024
Loading
Personal Weather Stations






























Interactive Weather Map New forecast layout! Learn more

10-Day Weather Forecast

Advertisements
Track Severe Weather on mobile